Time,TemperatureF,DewpointF,PressureIn,WindDirection,WindDirectionDegrees,WindSpeedMPH,WindSpeedGustMPH,Humidity,HourlyPrecipIn,Conditions,Clouds,dailyrainin,SoftwareType,DateUTC
2013-07-29 00:00:00,69.8,68.3,29.94,ESE,123,0.0,3.0,95,0.00,,,0.00,VWS V14.01,2013-07-29 04:00:00,
2013-07-29 00:01:00,69.8,68.3,29.94,ESE,123,0.0,3.0,95,0.00,,,0.00,VWS V14.01,2013-07-29 04:01:00,
2013-07-29 00:06:00,69.8,68.3,29.94,ESE,123,0.0,0.0,95,0.00,,,0.00,VWS V14.01,2013-07-29 04:06:00,
2013-07-29 00:11:00,69.7,68.2,29.94,ESE,123,0.0,0.0,95,0.00,,,0.00,VWS V14.01,2013-07-29 04:11:00,
2013-07-29 00:16:00,69.6,68.1,29.94,ESE,123,0.0,0.0,95,0.00,,,0.00,VWS V14.01,2013-07-29 04:16:00,
2013-07-29 00:21:00,69.4,67.9,29.94,ESE,123,0.0,0.0,95,0.00,,,0.00,VWS V14.01,2013-07-29 04:21:00,
2013-07-29 00:26:00,69.3,67.8,29.94,ESE,123,0.0,0.0,95,0.00,,,0.00,VWS V14.01,2013-07-29 04:26:00,
2013-07-29 00:30:00,69.2,67.7,29.94,ESE,123,0.0,0.0,95,0.00,,,0.00,VWS V14.01,2013-07-29 04:30:00,
2013-07-29 00:31:00,69.2,67.7,29.94,ESE,123,0.0,0.0,95,0.00,,,0.00,VWS V14.01,2013-07-29 04:31:00,
2013-07-29 00:36:00,69.0,67.5,29.93,ESE,123,0.0,0.0,95,0.00,,,0.00,VWS V14.01,2013-07-29 04:36:00,
2013-07-29 00:41:00,68.8,67.3,29.93,ESE,123,0.0,0.0,95,0.00,,,0.00,VWS V14.01,2013-07-29 04:41:00,
2013-07-29 00:46:00,68.7,67.5,29.93,ESE,123,0.0,0.0,96,0.00,,,0.00,VWS V14.01,2013-07-29 04:46:00,
2013-07-29 00:51:00,68.5,67.3,29.94,ESE,123,0.0,1.0,96,0.00,,,0.00,VWS V14.01,2013-07-29 04:51:00,
2013-07-29 00:56:00,68.4,67.2,29.94,ESE,123,0.0,1.0,96,0.00,,,0.00,VWS V14.01,2013-07-29 04:56:00,
2013-07-29 01:00:00,68.3,67.1,29.94,ESE,123,0.0,1.0,96,0.00,,,0.00,VWS V14.01,2013-07-29 05:00:00,
2013-07-29 01:01:00,68.3,67.1,29.94,ESE,123,0.0,1.0,96,0.00,,,0.00,VWS V14.01,2013-07-29 05:01:00,
2013-07-29 01:07:00,68.2,67.0,29.94,ESE,123,0.0,0.0,96,0.00,,,0.00,VWS V14.01,2013-07-29 05:07:00,
2013-07-29 01:12:00,68.1,66.9,29.94,ESE,123,0.0,0.0,96,0.00,,,0.00,VWS V14.01,2013-07-29 05:12:00,
2013-07-29 01:17:00,68.1,67.2,29.95,ESE,123,0.0,0.0,97,0.00,,,0.00,VWS V14.01,2013-07-29 05:17:00,
2013-07-29 01:22:00,68.2,67.3,29.95,ESE,123,0.0,0.0,97,0.00,,,0.00,VWS V14.01,2013-07-29 05:22:00,
2013-07-29 01:27:00,68.5,67.9,29.94,SE,126,2.0,2.0,98,0.00,,,0.00,VWS V14.01,2013-07-29 05:27:00,
2013-07-29 01:30:00,69.0,68.1,29.95,SE,138,0.0,2.0,97,0.00,,,0.00,VWS V14.01,2013-07-29 05:30:00,
2013-07-29 01:32:00,69.0,68.1,29.95,SE,138,0.0,2.0,97,0.00,,,0.00,VWS V14.01,2013-07-29 05:32:00,
2013-07-29 01:37:00,69.2,68.6,29.94,SE,138,0.0,0.0,98,0.00,,,0.00,VWS V14.01,2013-07-29 05:37:00,
2013-07-29 01:42:00,69.2,68.3,29.94,SE,138,0.0,0.0,97,0.00,,,0.00,VWS V14.01,2013-07-29 05:42:00,
2013-07-29 01:47:00,69.2,68.3,29.94,SE,138,0.0,0.0,97,0.00,,,0.00,VWS V14.01,2013-07-29 05:47:00,
2013-07-29 01:52:00,69.0,68.1,29.94,SE,138,0.0,0.0,97,0.00,,,0.00,VWS V14.01,2013-07-29 05:52:00,
2013-07-29 01:57:00,69.0,68.1,29.94,SE,138,0.0,0.0,97,0.00,,,0.00,VWS V14.01,2013-07-29 05:57:00,
2013-07-29 02:00:00,68.9,68.0,29.94,SE,138,0.0,0.0,97,0.00,,,0.00,VWS V14.01,2013-07-29 06:00:00,
2013-07-29 02:02:00,68.9,68.0,29.94,SE,138,0.0,0.0,97,0.00,,,0.00,VWS V14.01,2013-07-29 06:02:00,
2013-07-29 02:07:00,68.9,68.0,29.93,SE,138,0.0,0.0,97,0.00,,,0.00,VWS V14.01,2013-07-29 06:07:00,
2013-07-29 02:12:00,68.8,67.9,29.93,SE,138,0.0,0.0,97,0.00,,,0.00,VWS V14.01,2013-07-29 06:12:00,
2013-07-29 02:17:00,68.8,67.9,29.93,SE,138,0.0,0.0,97,0.00,,,0.00,VWS V14.01,2013-07-29 06:17:00,
2013-07-29 02:22:00,68.7,67.8,29.93,SE,138,0.0,0.0,97,0.00,,,0.00,VWS V14.01,2013-07-29 06:22:00,
2013-07-29 02:27:00,68.7,67.8,29.93,SE,138,0.0,0.0,97,0.00,,,0.00,VWS V14.01,2013-07-29 06:27:00,
2013-07-29 02:30:00,68.6,67.7,29.93,SE,138,0.0,0.0,97,0.00,,,0.00,VWS V14.01,2013-07-29 06:30:00,
2013-07-29 02:32:00,68.6,67.7,29.93,SE,138,0.0,0.0,97,0.00,,,0.00,VWS V14.01,2013-07-29 06:32:00,
2013-07-29 02:37:00,68.6,67.7,29.93,SE,138,0.0,0.0,97,0.00,,,0.00,VWS V14.01,2013-07-29 06:37:00,
2013-07-29 02:42:00,68.6,67.7,29.93,SE,138,0.0,0.0,97,0.00,,,0.00,VWS V14.01,2013-07-29 06:42:00,
2013-07-29 02:47:00,68.5,67.6,29.92,SE,138,0.0,0.0,97,0.00,,,0.00,VWS V14.01,2013-07-29 06:47:00,
2013-07-29 02:52:00,68.4,67.5,29.93,SE,138,0.0,0.0,97,0.00,,,0.00,VWS V14.01,2013-07-29 06:52:00,
2013-07-29 02:57:00,68.4,67.5,29.93,SE,138,0.0,0.0,97,0.00,,,0.00,VWS V14.01,2013-07-29 06:57:00,
2013-07-29 03:00:00,68.4,67.5,29.93,SE,138,0.0,0.0,97,0.00,,,0.00,VWS V14.01,2013-07-29 07:00:00,
2013-07-29 03:02:00,68.4,67.5,29.93,SE,138,0.0,0.0,97,0.00,,,0.00,VWS V14.01,2013-07-29 07:02:00,
2013-07-29 03:07:00,68.4,67.5,29.92,SE,138,0.0,0.0,97,0.00,,,0.00,VWS V14.01,2013-07-29 07:07:00,
2013-07-29 03:12:00,68.3,67.4,29.93,SE,138,0.0,0.0,97,0.00,,,0.00,VWS V14.01,2013-07-29 07:12:00,
2013-07-29 03:17:00,68.4,67.8,29.93,SE,138,0.0,0.0,98,0.00,,,0.00,VWS V14.01,2013-07-29 07:17:00,
2013-07-29 03:22:00,68.3,67.4,29.93,SE,138,0.0,0.0,97,0.00,,,0.00,VWS V14.01,2013-07-29 07:22:00,
2013-07-29 03:27:00,68.2,67.6,29.93,SE,138,0.0,1.0,98,0.00,,,0.00,VWS V14.01,2013-07-29 07:27:00,
2013-07-29 03:30:00,68.3,67.7,29.93,SE,138,0.0,1.0,98,0.00,,,0.00,VWS V14.01,2013-07-29 07:30:00,
2013-07-29 03:32:00,68.3,67.7,29.93,SE,138,0.0,1.0,98,0.00,,,0.00,VWS V14.01,2013-07-29 07:32:00,
2013-07-29 03:37:00,68.3,67.7,29.93,SE,138,0.0,0.0,98,0.00,,,0.00,VWS V14.01,2013-07-29 07:37:00,
2013-07-29 03:42:00,68.3,67.7,29.94,SE,138,0.0,0.0,98,0.00,,,0.00,VWS V14.01,2013-07-29 07:42:00,
2013-07-29 03:47:00,68.4,67.8,29.94,SE,137,0.0,1.0,98,0.00,,,0.00,VWS V14.01,2013-07-29 07:47:00,
2013-07-29 03:52:00,68.5,67.9,29.94,SE,137,0.0,2.0,98,0.00,,,0.00,VWS V14.01,2013-07-29 07:52:00,
2013-07-29 03:57:00,68.6,68.0,29.94,SE,137,0.0,2.0,98,0.00,,,0.00,VWS V14.01,2013-07-29 07:57:00,
2013-07-29 04:00:00,68.6,68.0,29.95,SE,137,0.0,2.0,98,0.00,,,0.00,VWS V14.01,2013-07-29 08:00:00,
2013-07-29 04:02:00,68.6,68.0,29.95,SE,137,0.0,2.0,98,0.00,,,0.00,VWS V14.01,2013-07-29 08:02:00,
2013-07-29 04:07:00,68.6,68.0,29.95,SE,137,0.0,0.0,98,0.00,,,0.00,VWS V14.01,2013-07-29 08:07:00,
2013-07-29 04:12:00,68.6,68.0,29.95,SE,137,0.0,1.0,98,0.00,,,0.00,VWS V14.01,2013-07-29 08:12:00,
2013-07-29 04:17:00,68.5,67.9,29.95,SE,137,0.0,1.0,98,0.00,,,0.00,VWS V14.01,2013-07-29 08:17:00,
2013-07-29 04:22:00,68.5,67.9,29.95,SE,137,0.0,1.0,98,0.00,,,0.00,VWS V14.01,2013-07-29 08:22:00,
2013-07-29 04:27:00,68.5,67.9,29.95,SE,137,0.0,1.0,98,0.00,,,0.00,VWS V14.01,2013-07-29 08:27:00,
2013-07-29 04:30:00,68.5,67.9,29.95,SE,137,0.0,1.0,98,0.00,,,0.00,VWS V14.01,2013-07-29 08:30:00,
2013-07-29 04:32:00,68.5,67.9,29.95,SE,137,0.0,1.0,98,0.00,,,0.00,VWS V14.01,2013-07-29 08:32:00,
2013-07-29 04:37:00,68.5,67.9,29.96,SE,137,0.0,0.0,98,0.00,,,0.00,VWS V14.01,2013-07-29 08:37:00,
2013-07-29 04:42:00,68.5,67.9,29.96,SE,137,0.0,0.0,98,0.00,,,0.00,VWS V14.01,2013-07-29 08:42:00,
2013-07-29 04:47:00,68.5,67.9,29.96,SE,137,0.0,0.0,98,0.00,,,0.00,VWS V14.01,2013-07-29 08:47:00,
2013-07-29 04:52:00,68.5,67.9,29.96,SE,137,0.0,0.0,98,0.00,,,0.00,VWS V14.01,2013-07-29 08:52:00,
2013-07-29 04:57:00,68.5,67.9,29.95,SE,137,0.0,1.0,98,0.00,,,0.00,VWS V14.01,2013-07-29 08:57:00,
2013-07-29 05:00:00,68.5,67.9,29.95,SE,137,0.0,1.0,98,0.00,,,0.00,VWS V14.01,2013-07-29 09:00:00,
2013-07-29 05:02:00,68.6,68.0,29.96,SE,137,0.0,1.0,98,0.00,,,0.00,VWS V14.01,2013-07-29 09:02:00,
2013-07-29 05:07:00,68.5,67.9,29.95,SE,137,0.0,0.0,98,0.00,,,0.00,VWS V14.01,2013-07-29 09:07:00,
2013-07-29 05:12:00,68.5,67.9,29.95,SE,137,0.0,0.0,98,0.00,,,0.00,VWS V14.01,2013-07-29 09:12:00,
2013-07-29 05:17:00,68.5,67.9,29.95,SE,137,0.0,0.0,98,0.00,,,0.00,VWS V14.01,2013-07-29 09:17:00,
2013-07-29 05:22:00,68.5,67.9,29.95,SE,137,0.0,1.0,98,0.00,,,0.00,VWS V14.01,2013-07-29 09:22:00,
2013-07-29 05:27:00,68.5,67.9,29.95,SE,137,0.0,1.0,98,0.00,,,0.00,VWS V14.01,2013-07-29 09:27:00,
2013-07-29 05:30:00,68.5,67.9,29.94,SE,137,0.0,1.0,98,0.00,,,0.00,VWS V14.01,2013-07-29 09:30:00,
2013-07-29 05:32:00,68.5,67.9,29.94,SE,137,0.0,0.0,98,0.00,,,0.00,VWS V14.01,2013-07-29 09:32:00,
2013-07-29 05:37:00,68.5,67.9,29.94,SE,137,0.0,1.0,98,0.00,,,0.00,VWS V14.01,2013-07-29 09:37:00,
2013-07-29 05:42:00,68.6,68.0,29.94,SE,137,0.0,1.0,98,0.00,,,0.00,VWS V14.01,2013-07-29 09:42:00,
2013-07-29 05:47:00,68.7,68.1,29.94,SE,137,0.0,1.0,98,0.00,,,0.00,VWS V14.01,2013-07-29 09:47:00,
2013-07-29 05:52:00,68.7,68.1,29.94,SE,137,0.0,1.0,98,0.00,,,0.00,VWS V14.01,2013-07-29 09:52:00,
2013-07-29 05:57:00,68.8,68.2,29.94,SE,137,1.0,2.0,98,0.00,,,0.00,VWS V14.01,2013-07-29 09:57:00,
2013-07-29 06:00:00,69.0,68.4,29.94,SE,137,0.0,2.0,98,0.00,,,0.00,VWS V14.01,2013-07-29 10:00:00,
2013-07-29 06:03:00,69.0,68.4,29.94,SE,137,0.0,2.0,98,0.00,,,0.00,VWS V14.01,2013-07-29 10:03:00,
2013-07-29 06:08:00,69.1,68.5,29.94,SE,126,1.0,3.0,98,0.00,,,0.00,VWS V14.01,2013-07-29 10:08:00,
2013-07-29 06:13:00,69.4,68.8,29.94,SE,129,1.0,3.0,98,0.00,,,0.00,VWS V14.01,2013-07-29 10:13:00,
2013-07-29 06:18:00,69.4,68.8,29.94,SE,133,0.0,3.0,98,0.00,,,0.00,VWS V14.01,2013-07-29 10:18:00,
2013-07-29 06:23:00,69.4,68.8,29.95,SE,133,0.0,3.0,98,0.00,,,0.00,VWS V14.01,2013-07-29 10:23:00,
2013-07-29 06:28:00,69.4,68.8,29.95,SE,133,0.0,3.0,98,0.00,,,0.00,VWS V14.01,2013-07-29 10:28:00,
2013-07-29 06:30:00,69.3,68.7,29.95,SE,133,1.0,3.0,98,0.00,,,0.00,VWS V14.01,2013-07-29 10:30:00,
2013-07-29 06:33:00,69.4,68.8,29.95,SE,130,0.0,1.0,98,0.00,,,0.00,VWS V14.01,2013-07-29 10:33:00,
2013-07-29 06:38:00,69.4,68.8,29.95,SE,133,0.0,2.0,98,0.00,,,0.00,VWS V14.01,2013-07-29 10:38:00,
2013-07-29 06:43:00,69.4,68.8,29.95,SE,134,0.0,2.0,98,0.00,,,0.00,VWS V14.01,2013-07-29 10:43:00,
2013-07-29 06:48:00,69.5,68.9,29.95,SE,136,1.0,2.0,98,0.00,,,0.00,VWS V14.01,2013-07-29 10:48:00,
2013-07-29 06:53:00,69.7,69.1,29.95,SSW,195,1.0,3.0,98,0.00,,,0.00,VWS V14.01,2013-07-29 10:53:00,
2013-07-29 06:58:00,69.8,69.2,29.95,SSE,152,2.0,4.0,98,0.00,,,0.00,VWS V14.01,2013-07-29 10:58:00,
2013-07-29 07:00:00,69.9,69.3,29.95,ESE,120,2.0,4.0,98,0.00,,,0.00,VWS V14.01,2013-07-29 11:00:00,
2013-07-29 07:03:00,69.9,69.3,29.95,SSE,154,0.0,3.0,98,0.00,,,0.00,VWS V14.01,2013-07-29 11:03:00,
2013-07-29 07:08:00,69.9,69.3,29.95,SE,132,0.0,3.0,98,0.00,,,0.00,VWS V14.01,2013-07-29 11:08:00,
2013-07-29 07:13:00,70.1,69.5,29.96,SSE,153,1.0,4.0,98,0.00,,,0.00,VWS V14.01,2013-07-29 11:13:00,
2013-07-29 07:18:00,70.3,69.7,29.96,SE,128,2.0,4.0,98,0.00,,,0.00,VWS V14.01,2013-07-29 11:18:00,
2013-07-29 07:23:00,70.5,69.9,29.96,SE,128,1.0,4.0,98,0.00,,,0.00,VWS V14.01,2013-07-29 11:23:00,
2013-07-29 07:28:00,70.7,69.8,29.96,SE,138,2.0,4.0,97,0.00,,,0.00,VWS V14.01,2013-07-29 11:28:00,
2013-07-29 07:30:00,70.7,69.8,29.96,SE,139,0.0,4.0,97,0.00,,,0.00,VWS V14.01,2013-07-29 11:30:00,
2013-07-29 07:33:00,70.8,69.9,29.96,SE,138,3.0,4.0,97,0.00,,,0.00,VWS V14.01,2013-07-29 11:33:00,
2013-07-29 07:38:00,71.1,70.2,29.96,SE,141,2.0,4.0,97,0.00,,,0.00,VWS V14.01,2013-07-29 11:38:00,
2013-07-29 07:43:00,71.5,70.3,29.96,SE,139,1.0,4.0,96,0.00,,,0.00,VWS V14.01,2013-07-29 11:43:00,
2013-07-29 07:48:00,72.0,70.5,29.96,SSE,151,1.0,4.0,95,0.00,,,0.00,VWS V14.01,2013-07-29 11:48:00,
2013-07-29 07:53:00,72.5,71.0,29.96,SSW,195,3.0,4.0,95,0.00,,,0.00,VWS V14.01,2013-07-29 11:53:00,
2013-07-29 07:58:00,73.1,71.3,29.96,SE,144,2.0,5.0,94,0.00,,,0.00,VWS V14.01,2013-07-29 11:58:00,
2013-07-29 08:00:00,73.4,70.9,29.96,South,172,2.0,5.0,92,0.00,,,0.00,VWS V14.01,2013-07-29 12:00:00,
2013-07-29 08:03:00,73.5,71.0,29.96,SE,132,0.0,3.0,92,0.00,,,0.00,VWS V14.01,2013-07-29 12:03:00,
2013-07-29 08:09:00,74.0,71.2,29.96,SE,135,2.0,6.0,91,0.00,,,0.00,VWS V14.01,2013-07-29 12:09:00,
2013-07-29 08:14:00,74.3,71.2,29.96,SSE,148,2.0,6.0,90,0.00,,,0.00,VWS V14.01,2013-07-29 12:14:00,
2013-07-29 08:19:00,74.4,70.9,29.96,SE,131,1.0,6.0,89,0.00,,,0.00,VWS V14.01,2013-07-29 12:19:00,
2013-07-29 08:24:00,74.6,71.2,29.96,SE,134,2.0,6.0,89,0.00,,,0.00,VWS V14.01,2013-07-29 12:24:00,
2013-07-29 08:29:00,74.7,71.2,29.96,SE,131,0.0,6.0,89,0.00,,,0.00,VWS V14.01,2013-07-29 12:29:00,
2013-07-29 08:30:00,74.6,71.2,29.96,SSE,152,0.0,6.0,89,0.00,,,0.00,VWS V14.01,2013-07-29 12:30:00,
2013-07-29 08:34:00,74.7,71.2,29.96,SE,128,1.0,2.0,89,0.00,,,0.00,VWS V14.01,2013-07-29 12:34:00,
2013-07-29 08:39:00,74.9,71.8,29.96,SSE,152,0.0,4.0,90,0.00,,,0.00,VWS V14.01,2013-07-29 12:39:00,
2013-07-29 08:44:00,75.4,71.6,29.96,ESE,122,0.0,4.0,88,0.00,,,0.00,VWS V14.01,2013-07-29 12:44:00,
2013-07-29 08:49:00,75.7,71.6,29.96,SE,133,0.0,4.0,87,0.00,,,0.00,VWS V14.01,2013-07-29 12:49:00,
2013-07-29 08:54:00,76.2,72.1,29.96,SSE,148,1.0,4.0,87,0.00,,,0.00,VWS V14.01,2013-07-29 12:54:00,
2013-07-29 08:59:00,76.6,72.4,29.95,SE,128,0.0,4.0,87,0.00,,,0.00,VWS V14.01,2013-07-29 12:59:00,
2013-07-29 09:00:00,76.9,72.4,29.96,SE,138,0.0,4.0,86,0.00,,,0.00,VWS V14.01,2013-07-29 13:00:00,
2013-07-29 09:04:00,77.1,72.6,29.95,SSW,208,0.0,3.0,86,0.00,,,0.00,VWS V14.01,2013-07-29 13:04:00,
2013-07-29 09:09:00,77.3,72.1,29.96,SE,132,3.0,4.0,84,0.00,,,0.00,VWS V14.01,2013-07-29 13:09:00,
2013-07-29 09:14:00,77.1,71.9,29.96,SE,144,1.0,4.0,84,0.00,,,0.00,VWS V14.01,2013-07-29 13:14:00,
2013-07-29 09:19:00,76.8,71.9,29.96,SE,136,0.0,4.0,85,0.00,,,0.00,VWS V14.01,2013-07-29 13:19:00,
2013-07-29 09:24:00,76.8,72.3,29.96,SE,136,1.0,4.0,86,0.00,,,0.00,VWS V14.01,2013-07-29 13:24:00,
2013-07-29 09:29:00,76.7,72.2,29.96,South,182,0.0,4.0,86,0.00,,,0.00,VWS V14.01,2013-07-29 13:29:00,
2013-07-29 09:30:00,76.7,72.2,29.96,SW,226,0.0,4.0,86,0.00,,,0.00,VWS V14.01,2013-07-29 13:30:00,
2013-07-29 09:35:00,76.8,72.6,29.96,South,180,1.0,1.0,87,0.00,,,0.00,VWS V14.01,2013-07-29 13:35:00,
2013-07-29 09:40:00,76.9,72.4,29.96,WSW,245,0.0,3.0,86,0.00,,,0.00,VWS V14.01,2013-07-29 13:40:00,
2013-07-29 09:45:00,77.1,72.6,29.96,West,270,1.0,3.0,86,0.00,,,0.00,VWS V14.01,2013-07-29 13:45:00,
2013-07-29 09:50:00,77.6,73.1,29.96,West,263,1.0,3.0,86,0.00,,,0.00,VWS V14.01,2013-07-29 13:50:00,
2013-07-29 09:55:00,77.6,72.7,29.96,WSW,240,1.0,4.0,85,0.00,,,0.00,VWS V14.01,2013-07-29 13:55:00,
2013-07-29 10:00:00,77.5,72.6,29.97,SW,216,1.0,4.0,85,0.00,,,0.00,VWS V14.01,2013-07-29 14:00:00,
2013-07-29 10:05:00,77.6,73.1,29.97,SSW,202,1.0,2.0,86,0.00,,,0.00,VWS V14.01,2013-07-29 14:05:00,
2013-07-29 10:10:00,77.9,73.0,29.97,South,185,1.0,4.0,85,0.00,,,0.00,VWS V14.01,2013-07-29 14:10:00,
2013-07-29 10:15:00,78.2,73.0,29.97,WSW,257,2.0,4.0,84,0.00,,,0.00,VWS V14.01,2013-07-29 14:15:00,
2013-07-29 10:20:00,78.1,72.9,29.97,South,175,2.0,6.0,84,0.00,,,0.00,VWS V14.01,2013-07-29 14:20:00,
2013-07-29 10:25:00,77.8,72.6,29.97,SSW,211,2.0,6.0,84,0.00,,,0.00,VWS V14.01,2013-07-29 14:25:00,
2013-07-29 10:30:00,78.2,73.3,29.97,WSW,249,1.0,6.0,85,0.00,,,0.00,VWS V14.01,2013-07-29 14:30:00,
2013-07-29 10:35:00,78.5,72.9,29.97,SSW,213,3.0,4.0,83,0.00,,,0.00,VWS V14.01,2013-07-29 14:35:00,
2013-07-29 10:40:00,78.5,72.6,29.98,SW,217,1.0,5.0,82,0.00,,,0.00,VWS V14.01,2013-07-29 14:40:00,
2013-07-29 10:45:00,78.7,72.8,29.98,SE,129,4.0,5.0,82,0.00,,,0.00,VWS V14.01,2013-07-29 14:45:00,
2013-07-29 10:50:00,78.5,72.6,29.98,SE,138,2.0,6.0,82,0.00,,,0.00,VWS V14.01,2013-07-29 14:50:00,
2013-07-29 10:55:00,78.2,72.3,29.98,South,177,0.0,6.0,82,0.00,,,0.00,VWS V14.01,2013-07-29 14:55:00,
2013-07-29 11:00:00,78.3,72.7,29.98,SSE,155,3.0,6.0,83,0.00,,,0.00,VWS V14.01,2013-07-29 15:00:00,
2013-07-29 11:05:00,78.5,72.9,29.98,SE,135,5.0,5.0,83,0.00,,,0.00,VWS V14.01,2013-07-29 15:05:00,
2013-07-29 11:11:00,78.3,72.4,29.98,South,182,4.0,7.0,82,0.00,,,0.00,VWS V14.01,2013-07-29 15:11:00,
2013-07-29 11:16:00,78.2,72.6,29.98,SE,144,3.0,7.0,83,0.00,,,0.00,VWS V14.01,2013-07-29 15:16:00,
2013-07-29 11:21:00,78.2,72.6,29.98,WSW,241,3.0,8.0,83,0.00,,,0.00,VWS V14.01,2013-07-29 15:21:00,
2013-07-29 11:26:00,78.2,72.3,29.98,SSW,211,2.0,8.0,82,0.00,,,0.00,VWS V14.01,2013-07-29 15:26:00,
2013-07-29 11:30:00,77.8,72.6,29.98,SSW,205,2.0,9.0,84,0.00,,,0.00,VWS V14.01,2013-07-29 15:30:00,
2013-07-29 11:31:00,77.7,72.5,29.98,SE,141,2.0,9.0,84,0.00,,,0.00,VWS V14.01,2013-07-29 15:31:00,
2013-07-29 11:36:00,78.0,72.8,29.98,SE,132,1.0,7.0,84,0.00,,,0.00,VWS V14.01,2013-07-29 15:36:00,
2013-07-29 11:41:00,78.2,72.6,29.98,SE,138,1.0,7.0,83,0.00,,,0.00,VWS V14.01,2013-07-29 15:41:00,
2013-07-29 11:46:00,78.0,72.4,29.98,SSW,209,1.0,7.0,83,0.00,,,0.00,VWS V14.01,2013-07-29 15:46:00,
2013-07-29 11:51:00,78.1,72.9,29.98,South,186,4.0,7.0,84,0.00,,,0.00,VWS V14.01,2013-07-29 15:51:00,
2013-07-29 11:56:00,78.1,72.5,29.97,SSE,155,1.0,7.0,83,0.00,,,0.00,VWS V14.01,2013-07-29 15:56:00,
2013-07-29 12:00:00,78.3,72.7,29.97,SE,130,3.0,7.0,83,0.00,,,0.00,VWS V14.01,2013-07-29 16:00:00,
2013-07-29 12:01:00,78.3,73.1,29.97,South,169,3.0,7.0,84,0.00,,,0.00,VWS V14.01,2013-07-29 16:01:00,
2013-07-29 12:07:00,78.7,73.1,29.97,SSE,162,2.0,6.0,83,0.00,,,0.00,VWS V14.01,2013-07-29 16:07:00,
2013-07-29 12:12:00,79.1,73.1,29.98,SW,216,0.0,6.0,82,0.00,,,0.00,VWS V14.01,2013-07-29 16:12:00,
2013-07-29 12:17:00,79.0,73.0,29.98,SW,225,1.0,7.0,82,0.00,,,0.00,VWS V14.01,2013-07-29 16:17:00,
2013-07-29 12:22:00,79.4,73.4,29.98,SE,140,3.0,7.0,82,0.00,,,0.00,VWS V14.01,2013-07-29 16:22:00,
2013-07-29 12:27:00,79.6,72.9,29.98,SW,219,3.0,7.0,80,0.00,,,0.00,VWS V14.01,2013-07-29 16:27:00,
2013-07-29 12:30:00,79.2,72.9,29.97,SSW,213,2.0,9.0,81,0.00,,,0.00,VWS V14.01,2013-07-29 16:30:00,
2013-07-29 12:32:00,79.2,72.5,29.97,SE,140,3.0,9.0,80,0.00,,,0.00,VWS V14.01,2013-07-29 16:32:00,
2013-07-29 12:37:00,79.4,73.4,29.97,ESE,122,2.0,3.0,82,0.00,,,0.00,VWS V14.01,2013-07-29 16:37:00,
2013-07-29 12:42:00,79.3,73.0,29.98,North,350,1.0,10.0,81,0.00,,,0.00,VWS V14.01,2013-07-29 16:42:00,
2013-07-29 12:47:00,79.3,73.3,29.97,South,186,3.0,10.0,82,0.00,,,0.00,VWS V14.01,2013-07-29 16:47:00,
2013-07-29 12:52:00,79.6,74.0,29.97,SSW,211,2.0,10.0,83,0.00,,,0.00,VWS V14.01,2013-07-29 16:52:00,
2013-07-29 12:57:00,80.1,73.8,29.97,West,268,1.0,10.0,81,0.00,,,0.00,VWS V14.01,2013-07-29 16:57:00,
2013-07-29 13:00:00,79.9,73.2,29.97,SE,134,1.0,10.0,80,0.00,,,0.00,VWS V14.01,2013-07-29 17:00:00,
2013-07-29 13:02:00,79.9,73.2,29.97,SE,131,1.0,1.0,80,0.00,,,0.00,VWS V14.01,2013-07-29 17:02:00,
2013-07-29 13:07:00,80.0,73.7,29.97,South,186,3.0,6.0,81,0.00,,,0.00,VWS V14.01,2013-07-29 17:07:00,
2013-07-29 13:12:00,80.0,73.3,29.97,ESE,113,3.0,8.0,80,0.00,,,0.00,VWS V14.01,2013-07-29 17:12:00,
2013-07-29 13:17:00,79.8,73.1,29.96,SE,127,2.0,8.0,80,0.00,,,0.00,VWS V14.01,2013-07-29 17:17:00,
2013-07-29 13:22:00,79.7,72.6,29.96,SSW,198,1.0,8.0,79,0.00,,,0.00,VWS V14.01,2013-07-29 17:22:00,
2013-07-29 13:27:00,79.9,73.2,29.97,SSE,160,1.0,8.0,80,0.00,,,0.00,VWS V14.01,2013-07-29 17:27:00,
2013-07-29 13:30:00,80.0,72.9,29.97,West,278,5.0,8.0,79,0.00,,,0.00,VWS V14.01,2013-07-29 17:30:00,
2013-07-29 13:33:00,79.9,72.8,29.97,SW,227,1.0,6.0,79,0.00,,,0.00,VWS V14.01,2013-07-29 17:33:00,
2013-07-29 13:38:00,79.7,73.0,29.97,SSE,164,4.0,7.0,80,0.00,,,0.00,VWS V14.01,2013-07-29 17:38:00,
2013-07-29 13:43:00,79.4,73.1,29.96,SSW,208,3.0,8.0,81,0.00,,,0.00,VWS V14.01,2013-07-29 17:43:00,
2013-07-29 13:48:00,79.8,73.8,29.96,SW,215,3.0,8.0,82,0.00,,,0.00,VWS V14.01,2013-07-29 17:48:00,
2013-07-29 13:53:00,80.2,74.2,29.96,WSW,240,4.0,8.0,82,0.00,,,0.00,VWS V14.01,2013-07-29 17:53:00,
2013-07-29 13:58:00,80.7,74.3,29.96,SE,130,4.0,8.0,81,0.00,,,0.00,VWS V14.01,2013-07-29 17:58:00,
2013-07-29 14:00:00,80.5,73.8,29.96,ESE,119,3.0,8.0,80,0.00,,,0.00,VWS V14.01,2013-07-29 18:00:00,
2013-07-29 14:03:00,80.4,73.7,29.96,SSW,203,2.0,4.0,80,0.00,,,0.00,VWS V14.01,2013-07-29 18:03:00,
2013-07-29 14:08:00,80.5,74.1,29.96,South,174,3.0,6.0,81,0.00,,,0.00,VWS V14.01,2013-07-29 18:08:00,
2013-07-29 14:13:00,80.2,73.8,29.96,SE,140,3.0,7.0,81,0.00,,,0.00,VWS V14.01,2013-07-29 18:13:00,
2013-07-29 14:18:00,79.5,73.5,29.96,South,173,8.0,10.0,82,0.00,,,0.00,VWS V14.01,2013-07-29 18:18:00,
2013-07-29 14:23:00,78.9,73.3,29.96,SSW,206,2.0,10.0,83,0.00,,,0.00,VWS V14.01,2013-07-29 18:23:00,
2013-07-29 14:28:00,78.5,73.3,29.96,South,182,1.0,10.0,84,0.00,,,0.00,VWS V14.01,2013-07-29 18:28:00,
2013-07-29 14:30:00,78.5,73.3,29.96,SW,223,0.0,10.0,84,0.00,,,0.00,VWS V14.01,2013-07-29 18:30:00,
2013-07-29 14:33:00,78.5,73.6,29.96,SSW,213,2.0,2.0,85,0.00,,,0.00,VWS V14.01,2013-07-29 18:33:00,
2013-07-29 14:39:00,78.4,72.8,29.96,SSE,165,2.0,6.0,83,0.00,,,0.00,VWS V14.01,2013-07-29 18:39:00,
2013-07-29 14:44:00,78.2,73.0,29.96,South,185,1.0,8.0,84,0.00,,,0.00,VWS V14.01,2013-07-29 18:44:00,
2013-07-29 14:49:00,78.0,73.1,29.95,SW,216,2.0,8.0,85,0.00,,,0.00,VWS V14.01,2013-07-29 18:49:00,
2013-07-29 14:54:00,78.1,72.9,29.95,SSW,207,2.0,8.0,84,0.00,,,0.00,VWS V14.01,2013-07-29 18:54:00,
2013-07-29 14:59:00,78.2,73.3,29.95,South,173,2.0,8.0,85,0.00,,,0.00,VWS V14.01,2013-07-29 18:59:00,
2013-07-29 15:00:00,78.2,73.0,29.95,SSW,197,4.0,8.0,84,0.00,,,0.00,VWS V14.01,2013-07-29 19:00:00,
2013-07-29 15:04:00,78.1,72.9,29.95,SSE,153,2.0,6.0,84,0.00,,,0.00,VWS V14.01,2013-07-29 19:04:00,
2013-07-29 15:09:00,78.1,73.2,29.95,SSW,200,3.0,6.0,85,0.00,,,0.00,VWS V14.01,2013-07-29 19:09:00,
2013-07-29 15:14:00,78.1,73.2,29.95,SSE,157,2.0,6.0,85,0.00,,,0.00,VWS V14.01,2013-07-29 19:14:00,
2013-07-29 15:19:00,78.1,73.2,29.95,ESE,105,3.0,6.0,85,0.00,,,0.00,VWS V14.01,2013-07-29 19:19:00,
2013-07-29 15:24:00,78.3,73.4,29.95,South,175,2.0,6.0,85,0.00,,,0.00,VWS V14.01,2013-07-29 19:24:00,
2013-07-29 15:30:00,78.5,73.6,29.95,SSW,198,5.0,6.0,85,0.00,,,0.00,VWS V14.01,2013-07-29 19:30:00,
2013-07-29 15:35:00,78.6,73.4,29.95,WSW,244,1.0,5.0,84,0.00,,,0.00,VWS V14.01,2013-07-29 19:35:00,
2013-07-29 15:40:00,78.4,73.2,29.95,SE,144,1.0,5.0,84,0.00,,,0.00,VWS V14.01,2013-07-29 19:40:00,
2013-07-29 15:45:00,78.2,73.3,29.95,SW,221,1.0,7.0,85,0.00,,,0.00,VWS V14.01,2013-07-29 19:45:00,
2013-07-29 15:50:00,78.0,73.5,29.95,SE,140,2.0,7.0,86,0.00,,,0.00,VWS V14.01,2013-07-29 19:50:00,
2013-07-29 15:55:00,78.0,73.5,29.95,South,188,1.0,7.0,86,0.00,,,0.00,VWS V14.01,2013-07-29 19:55:00,
2013-07-29 16:00:00,78.1,73.9,29.95,South,181,2.0,7.0,87,0.00,,,0.00,VWS V14.01,2013-07-29 20:00:00,
2013-07-29 16:05:00,78.2,73.7,29.95,ESE,123,3.0,6.0,86,0.00,,,0.00,VWS V14.01,2013-07-29 20:05:00,
2013-07-29 16:10:00,78.4,73.9,29.94,South,181,1.0,6.0,86,0.00,,,0.00,VWS V14.01,2013-07-29 20:10:00,
2013-07-29 16:15:00,78.8,74.3,29.94,South,190,3.0,6.0,86,0.00,,,0.00,VWS V14.01,2013-07-29 20:15:00,
2013-07-29 16:20:00,78.8,74.3,29.94,ESE,111,0.0,6.0,86,0.00,,,0.00,VWS V14.01,2013-07-29 20:20:00,
2013-07-29 16:25:00,79.1,74.6,29.94,SE,130,2.0,6.0,86,0.00,,,0.00,VWS V14.01,2013-07-29 20:25:00,
2013-07-29 16:30:00,79.3,74.8,29.94,SE,137,1.0,6.0,86,0.00,,,0.00,VWS V14.01,2013-07-29 20:30:00,
2013-07-29 16:35:00,79.3,74.8,29.94,SSW,192,2.0,4.0,86,0.00,,,0.00,VWS V14.01,2013-07-29 20:35:00,
2013-07-29 16:40:00,78.9,74.4,29.93,SW,219,1.0,6.0,86,0.00,,,0.00,VWS V14.01,2013-07-29 20:40:00,
2013-07-29 16:45:00,78.6,74.1,29.93,SSE,164,2.0,6.0,86,0.00,,,0.00,VWS V14.01,2013-07-29 20:45:00,
2013-07-29 16:50:00,78.7,74.5,29.93,SSE,156,3.0,6.0,87,0.00,,,0.00,VWS V14.01,2013-07-29 20:50:00,
2013-07-29 16:55:00,78.7,74.5,29.93,South,178,3.0,7.0,87,0.00,,,0.00,VWS V14.01,2013-07-29 20:55:00,
2013-07-29 17:00:00,78.8,74.6,29.93,SE,142,2.0,7.0,87,0.00,,,0.00,VWS V14.01,2013-07-29 21:00:00,
2013-07-29 17:01:00,78.8,74.6,29.93,SW,221,3.0,7.0,87,0.00,,,0.00,VWS V14.01,2013-07-29 21:01:00,
2013-07-29 17:06:00,78.5,74.3,29.93,SE,130,2.0,7.0,87,0.00,,,0.00,VWS V14.01,2013-07-29 21:06:00,
2013-07-29 17:11:00,78.3,74.5,29.94,South,191,4.0,7.0,88,0.00,,,0.00,VWS V14.01,2013-07-29 21:11:00,
2013-07-29 17:16:00,78.2,74.4,29.93,SW,215,2.0,8.0,88,0.00,,,0.00,VWS V14.01,2013-07-29 21:16:00,
2013-07-29 17:21:00,78.3,74.5,29.93,SSW,194,0.0,8.0,88,0.00,,,0.00,VWS V14.01,2013-07-29 21:21:00,
2013-07-29 17:27:00,78.2,74.4,29.93,SSE,148,0.0,8.0,88,0.00,,,0.00,VWS V14.01,2013-07-29 21:27:00,
2013-07-29 17:30:00,77.9,74.1,29.94,SSW,204,6.0,8.0,88,0.00,,,0.00,VWS V14.01,2013-07-29 21:30:00,
2013-07-29 17:32:00,77.9,74.1,29.94,WSW,238,2.0,8.0,88,0.00,,,0.00,VWS V14.01,2013-07-29 21:32:00,
2013-07-29 17:37:00,77.5,74.0,29.94,SSW,200,1.0,7.0,89,0.00,,,0.00,VWS V14.01,2013-07-29 21:37:00,
2013-07-29 17:42:00,77.5,74.3,29.94,SE,132,1.0,7.0,90,0.00,,,0.00,VWS V14.01,2013-07-29 21:42:00,
2013-07-29 17:47:00,77.5,74.3,29.94,SSW,194,3.0,7.0,90,0.00,,,0.00,VWS V14.01,2013-07-29 21:47:00,
2013-07-29 17:52:00,77.3,74.1,29.94,SSE,152,1.0,7.0,90,0.00,,,0.00,VWS V14.01,2013-07-29 21:52:00,
2013-07-29 17:57:00,77.3,74.1,29.93,South,183,1.0,7.0,90,0.00,,,0.00,VWS V14.01,2013-07-29 21:57:00,
2013-07-29 18:00:00,77.3,74.1,29.93,SSW,211,2.0,7.0,90,0.00,,,0.00,VWS V14.01,2013-07-29 22:00:00,
2013-07-29 18:02:00,77.3,74.1,29.93,SSW,211,2.0,7.0,90,0.00,,,0.00,VWS V14.01,2013-07-29 22:02:00,
2013-07-29 18:07:00,77.2,74.0,29.93,SW,227,1.0,5.0,90,0.00,,,0.00,VWS V14.01,2013-07-29 22:07:00,
2013-07-29 18:13:00,77.3,74.1,29.93,South,191,1.0,5.0,90,0.00,,,0.00,VWS V14.01,2013-07-29 22:13:00,
2013-07-29 18:18:00,77.2,74.0,29.93,SSW,202,0.0,5.0,90,0.00,,,0.00,VWS V14.01,2013-07-29 22:18:00,
2013-07-29 18:23:00,77.0,73.8,29.93,South,178,3.0,6.0,90,0.00,,,0.00,VWS V14.01,2013-07-29 22:23:00,
2013-07-29 18:28:00,76.7,73.6,29.93,SW,221,3.0,6.0,90,0.00,,,0.00,VWS V14.01,2013-07-29 22:28:00,
2013-07-29 18:30:00,76.8,73.7,29.93,SW,223,2.0,6.0,90,0.00,,,0.00,VWS V14.01,2013-07-29 22:30:00,
2013-07-29 18:33:00,76.8,73.7,29.93,SW,217,1.0,2.0,90,0.00,,,0.00,VWS V14.01,2013-07-29 22:33:00,
2013-07-29 18:38:00,76.8,73.7,29.93,SE,135,2.0,5.0,90,0.00,,,0.00,VWS V14.01,2013-07-29 22:38:00,
2013-07-29 18:43:00,76.7,73.6,29.94,SSW,194,1.0,5.0,90,0.00,,,0.00,VWS V14.01,2013-07-29 22:43:00,
2013-07-29 18:48:00,76.5,73.3,29.93,SE,134,1.0,5.0,90,0.00,,,0.00,VWS V14.01,2013-07-29 22:48:00,
2013-07-29 18:53:00,76.2,73.4,29.94,South,175,4.0,5.0,91,0.00,,,0.00,VWS V14.01,2013-07-29 22:53:00,
2013-07-29 18:58:00,76.0,73.2,29.94,SE,136,2.0,5.0,91,0.00,,,0.00,VWS V14.01,2013-07-29 22:58:00,
2013-07-29 19:00:00,75.8,73.0,29.94,South,176,2.0,5.0,91,0.00,,,0.00,VWS V14.01,2013-07-29 23:00:00,
2013-07-29 19:03:00,75.8,73.0,29.94,SSE,155,0.0,3.0,91,0.00,,,0.00,VWS V14.01,2013-07-29 23:03:00,
2013-07-29 19:08:00,75.6,73.1,29.94,South,177,2.0,5.0,92,0.00,,,0.00,VWS V14.01,2013-07-29 23:08:00,
2013-07-29 19:13:00,75.4,72.9,29.94,SSE,159,3.0,5.0,92,0.00,,,0.00,VWS V14.01,2013-07-29 23:13:00,
2013-07-29 19:18:00,75.2,72.7,29.94,SSE,160,0.0,5.0,92,0.00,,,0.00,VWS V14.01,2013-07-29 23:18:00,
2013-07-29 19:23:00,75.1,72.9,29.94,SE,145,0.0,5.0,93,0.00,,,0.00,VWS V14.01,2013-07-29 23:23:00,
2013-07-29 19:28:00,75.0,72.8,29.94,SW,219,2.0,7.0,93,0.00,,,0.00,VWS V14.01,2013-07-29 23:28:00,
2013-07-29 19:30:00,75.0,72.8,29.94,SE,146,1.0,7.0,93,0.00,,,0.00,VWS V14.01,2013-07-29 23:30:00,
2013-07-29 19:33:00,74.9,73.1,29.94,South,179,1.0,2.0,94,0.00,,,0.00,VWS V14.01,2013-07-29 23:33:00,
2013-07-29 19:39:00,74.9,73.1,29.94,West,267,0.0,3.0,94,0.00,,,0.00,VWS V14.01,2013-07-29 23:39:00,
2013-07-29 19:44:00,74.9,73.1,29.95,SSW,199,5.0,5.0,94,0.00,,,0.00,VWS V14.01,2013-07-29 23:44:00,
2013-07-29 19:49:00,74.7,72.9,29.95,South,180,5.0,8.0,94,0.00,,,0.00,VWS V14.01,2013-07-29 23:49:00,
2013-07-29 19:54:00,74.5,72.7,29.95,South,171,2.0,8.0,94,0.00,,,0.00,VWS V14.01,2013-07-29 23:54:00,
2013-07-29 20:00:00,74.3,72.5,29.95,South,190,1.0,9.0,94,0.00,,,0.00,VWS V14.01,2013-07-30 00:00:00,
2013-07-29 20:05:00,74.2,72.4,29.95,South,178,0.0,5.0,94,0.00,,,0.00,VWS V14.01,2013-07-30 00:05:00,
2013-07-29 20:10:00,74.1,72.6,29.95,SSE,160,3.0,5.0,95,0.00,,,0.00,VWS V14.01,2013-07-30 00:10:00,
2013-07-29 20:15:00,74.1,72.6,29.95,SE,145,2.0,5.0,95,0.00,,,0.00,VWS V14.01,2013-07-30 00:15:00,
2013-07-29 20:20:00,74.0,72.5,29.95,SE,144,1.0,5.0,95,0.00,,,0.00,VWS V14.01,2013-07-30 00:20:00,
2013-07-29 20:25:00,73.8,72.3,29.96,South,180,1.0,7.0,95,0.00,,,0.00,VWS V14.01,2013-07-30 00:25:00,
2013-07-29 20:30:00,73.8,72.3,29.96,SE,141,4.0,7.0,95,0.00,,,0.00,VWS V14.01,2013-07-30 00:30:00,
2013-07-29 20:35:00,73.7,72.2,29.96,SSE,155,3.0,6.0,95,0.00,,,0.00,VWS V14.01,2013-07-30 00:35:00,
2013-07-29 20:40:00,73.7,72.2,29.96,SSE,153,5.0,6.0,95,0.00,,,0.00,VWS V14.01,2013-07-30 00:40:00,
2013-07-29 20:45:00,73.6,72.1,29.96,SSE,151,3.0,7.0,95,0.00,,,0.00,VWS V14.01,2013-07-30 00:45:00,
2013-07-29 20:50:00,73.5,72.0,29.96,SW,232,1.0,7.0,95,0.00,,,0.00,VWS V14.01,2013-07-30 00:50:00,
2013-07-29 20:55:00,73.5,72.0,29.97,SW,219,3.0,7.0,95,0.00,,,0.00,VWS V14.01,2013-07-30 00:55:00,
2013-07-29 21:00:00,73.5,72.0,29.97,South,178,2.0,7.0,95,0.00,,,0.00,VWS V14.01,2013-07-30 01:00:00,
2013-07-29 21:05:00,73.4,71.6,29.97,SE,133,0.0,6.0,94,0.00,,,0.00,VWS V14.01,2013-07-30 01:05:00,
2013-07-29 21:10:00,73.3,71.5,29.97,SW,217,0.0,7.0,94,0.00,,,0.00,VWS V14.01,2013-07-30 01:10:00,
2013-07-29 21:15:00,73.4,71.6,29.97,SSE,156,3.0,7.0,94,0.00,,,0.00,VWS V14.01,2013-07-30 01:15:00,
2013-07-29 21:20:00,73.4,71.9,29.97,South,178,3.0,7.0,95,0.00,,,0.00,VWS V14.01,2013-07-30 01:20:00,
2013-07-29 21:25:00,73.4,71.6,29.97,SSE,152,2.0,7.0,94,0.00,,,0.00,VWS V14.01,2013-07-30 01:25:00,
2013-07-29 21:30:00,73.3,71.5,29.98,WSW,240,0.0,7.0,94,0.00,,,0.00,VWS V14.01,2013-07-30 01:30:00,
2013-07-29 21:35:00,73.2,71.4,29.98,SSE,150,1.0,4.0,94,0.00,,,0.00,VWS V14.01,2013-07-30 01:35:00,
2013-07-29 21:41:00,73.0,71.2,29.98,SW,218,4.0,9.0,94,0.00,,,0.00,VWS V14.01,2013-07-30 01:41:00,
2013-07-29 21:46:00,73.0,71.2,29.98,South,184,1.0,9.0,94,0.00,,,0.00,VWS V14.01,2013-07-30 01:46:00,
2013-07-29 21:51:00,73.0,71.2,29.98,SSE,164,1.0,9.0,94,0.00,,,0.00,VWS V14.01,2013-07-30 01:51:00,
2013-07-29 21:56:00,72.9,71.1,29.98,SSW,195,0.0,9.0,94,0.00,,,0.00,VWS V14.01,2013-07-30 01:56:00,
2013-07-29 22:00:00,72.9,71.1,29.97,SW,218,4.0,9.0,94,0.00,,,0.00,VWS V14.01,2013-07-30 02:00:00,
2013-07-29 22:02:00,72.9,71.1,29.97,SW,218,4.0,9.0,94,0.00,,,0.00,VWS V14.01,2013-07-30 02:02:00,
2013-07-29 22:07:00,72.9,71.1,29.98,SSE,160,2.0,6.0,94,0.00,,,0.00,VWS V14.01,2013-07-30 02:07:00,
2013-07-29 22:12:00,72.8,71.0,29.97,ESE,121,0.0,6.0,94,0.00,,,0.00,VWS V14.01,2013-07-30 02:12:00,
2013-07-29 22:17:00,72.8,71.0,29.97,SE,134,0.0,6.0,94,0.00,,,0.00,VWS V14.01,2013-07-30 02:17:00,
2013-07-29 22:22:00,72.7,70.9,29.97,South,169,3.0,6.0,94,0.00,,,0.00,VWS V14.01,2013-07-30 02:22:00,
2013-07-29 22:27:00,72.7,70.9,29.97,SSW,192,2.0,6.0,94,0.00,,,0.00,VWS V14.01,2013-07-30 02:27:00,
2013-07-29 22:30:00,72.6,71.1,29.97,SW,222,2.0,6.0,95,0.00,,,0.00,VWS V14.01,2013-07-30 02:30:00,
2013-07-29 22:32:00,72.6,71.1,29.97,SE,125,4.0,4.0,95,0.00,,,0.00,VWS V14.01,2013-07-30 02:32:00,
2013-07-29 22:37:00,72.6,71.1,29.97,WSW,241,1.0,5.0,95,0.00,,,0.00,VWS V14.01,2013-07-30 02:37:00,
2013-07-29 22:42:00,72.5,71.0,29.97,SE,126,1.0,5.0,95,0.00,,,0.00,VWS V14.01,2013-07-30 02:42:00,
2013-07-29 22:47:00,72.4,70.9,29.97,SSE,155,3.0,5.0,95,0.00,,,0.00,VWS V14.01,2013-07-30 02:47:00,
2013-07-29 22:53:00,72.4,70.9,29.97,SSW,213,1.0,5.0,95,0.00,,,0.00,VWS V14.01,2013-07-30 02:53:00,
2013-07-29 22:58:00,72.2,70.7,29.97,South,169,2.0,7.0,95,0.00,,,0.00,VWS V14.01,2013-07-30 02:58:00,
2013-07-29 23:00:00,72.2,70.7,29.97,SE,130,0.0,7.0,95,0.00,,,0.00,VWS V14.01,2013-07-30 03:00:00,
2013-07-29 23:02:00,72.2,70.7,29.97,SE,130,1.0,1.0,95,0.00,,,0.00,VWS V14.01,2013-07-30 03:02:00,
2013-07-29 23:07:00,72.1,70.6,29.97,South,178,1.0,5.0,95,0.00,,,0.00,VWS V14.01,2013-07-30 03:07:00,
2013-07-29 23:13:00,72.1,70.6,29.97,ESE,118,4.0,5.0,95,0.00,,,0.00,VWS V14.01,2013-07-30 03:13:00,
2013-07-29 23:18:00,72.1,70.6,29.97,SW,219,1.0,5.0,95,0.00,,,0.00,VWS V14.01,2013-07-30 03:18:00,
2013-07-29 23:23:00,72.0,70.5,29.97,SSW,207,2.0,5.0,95,0.00,,,0.00,VWS V14.01,2013-07-30 03:23:00,
2013-07-29 23:28:00,71.9,70.4,29.98,SW,217,1.0,7.0,95,0.00,,,0.00,VWS V14.01,2013-07-30 03:28:00,
2013-07-29 23:30:00,71.9,70.4,29.98,SW,219,0.0,7.0,95,0.00,,,0.00,VWS V14.01,2013-07-30 03:30:00,
2013-07-29 23:33:00,71.9,70.4,29.98,SW,219,0.0,0.0,95,0.00,,,0.00,VWS V14.01,2013-07-30 03:33:00,
2013-07-29 23:38:00,71.8,70.3,29.98,SW,231,0.0,3.0,95,0.00,,,0.00,VWS V14.01,2013-07-30 03:38:00,
2013-07-29 23:43:00,71.7,70.5,29.98,SW,231,1.0,3.0,96,0.00,,,0.00,VWS V14.01,2013-07-30 03:43:00,
2013-07-29 23:48:00,71.6,70.4,29.97,SW,231,0.0,3.0,96,0.00,,,0.00,VWS V14.01,2013-07-30 03:48:00,
2013-07-29 23:53:00,71.5,70.0,29.98,SW,231,0.0,3.0,95,0.00,,,0.00,VWS V14.01,2013-07-30 03:53:00,
2013-07-29 23:59:00,71.5,70.0,29.97,SW,226,0.0,3.0,95,0.00,,,0.00,VWS V14.01,2013-07-30 03:59:00,